sensor_id;sensor_type;location;lat;lon;timestamp;pressure;altitude;pressure_sealevel;temperature;humidity
42587;BME280;28216;53.362;-6.288;2023-03-30T00:02:27;99284.91;;;11.67;100.00
42587;BME280;28216;53.362;-6.288;2023-03-30T00:04:56;99290.75;;;11.69;100.00
42587;BME280;28216;53.362;-6.288;2023-03-30T00:07:30;99292.97;;;11.66;100.00
42587;BME280;28216;53.362;-6.288;2023-03-30T00:09:56;99290.34;;;11.66;100.00
42587;BME280;28216;53.362;-6.288;2023-03-30T00:12:23;99296.63;;;11.65;100.00
42587;BME280;28216;53.362;-6.288;2023-03-30T00:14:49;99298.44;;;11.51;100.00
42587;BME280;28216;53.362;-6.288;2023-03-30T00:17:14;99294.78;;;11.45;100.00
42587;BME280;28216;53.362;-6.288;2023-03-30T00:19:40;99297.81;;;11.49;100.00
42587;BME280;28216;53.362;-6.288;2023-03-30T00:22:07;99295.19;;;11.49;100.00
42587;BME280;28216;53.362;-6.288;2023-03-30T00:24:36;99298.03;;;11.48;100.00
42587;BME280;28216;53.362;-6.288;2023-03-30T00:27:02;99297.63;;;11.51;100.00
42587;BME280;28216;53.362;-6.288;2023-03-30T00:29:28;99302.88;;;11.44;100.00
42587;BME280;28216;53.362;-6.288;2023-03-30T00:31:53;99292.38;;;11.44;100.00
42587;BME280;28216;53.362;-6.288;2023-03-30T00:34:19;99299.63;;;11.42;100.00
42587;BME280;28216;53.362;-6.288;2023-03-30T00:36:45;99300.03;;;11.45;100.00
42587;BME280;28216;53.362;-6.288;2023-03-30T00:39:11;99301.06;;;11.51;100.00
42587;BME280;28216;53.362;-6.288;2023-03-30T00:41:37;99301.47;;;11.55;100.00
42587;BME280;28216;53.362;-6.288;2023-03-30T00:44:06;99298.81;;;11.48;100.00
42587;BME280;28216;53.362;-6.288;2023-03-30T00:46:32;99300.84;;;11.53;100.00
42587;BME280;28216;53.362;-6.288;2023-03-30T00:49:08;99300.25;;;11.51;100.00
42587;BME280;28216;53.362;-6.288;2023-03-30T00:51:37;99303.06;;;11.49;100.00
42587;BME280;28216;53.362;-6.288;2023-03-30T00:54:08;99304.06;;;11.41;100.00
42587;BME280;28216;53.362;-6.288;2023-03-30T00:56:37;99303.66;;;11.38;100.00
42587;BME280;28216;53.362;-6.288;2023-03-30T00:59:03;99302.03;;;11.37;100.00
42587;BME280;28216;53.362;-6.288;2023-03-30T01:01:29;99304.06;;;11.41;100.00
42587;BME280;28216;53.362;-6.288;2023-03-30T01:03:59;99297.59;;;11.37;100.00
42587;BME280;28216;53.362;-6.288;2023-03-30T01:06:26;99308.72;;;11.39;100.00
42587;BME280;28216;53.362;-6.288;2023-03-30T01:08:55;99301.03;;;11.38;100.00
42587;BME280;28216;53.362;-6.288;2023-03-30T01:11:22;99302.25;;;11.35;100.00
42587;BME280;28216;53.362;-6.288;2023-03-30T01:13:50;99300.44;;;11.36;100.00
42587;BME280;28216;53.362;-6.288;2023-03-30T01:22:25;99310.69;;;11.18;100.00
42587;BME280;28216;53.362;-6.288;2023-03-30T01:36:38;99323.19;;;11.16;100.00
42587;BME280;28216;53.362;-6.288;2023-03-30T01:42:17;99335.69;;;11.13;100.00
42587;BME280;28216;53.362;-6.288;2023-03-30T01:50:50;99327.56;;;11.02;100.00
42587;BME280;28216;53.362;-6.288;2023-03-30T01:56:18;99339.09;;;11.07;100.00
42587;BME280;28216;53.362;-6.288;2023-03-30T01:59:10;99340.88;;;11.00;100.00
42587;BME280;28216;53.362;-6.288;2023-03-30T02:01:37;99337.84;;;10.97;100.00
42587;BME280;28216;53.362;-6.288;2023-03-30T02:04:07;99333.41;;;10.97;100.00
42587;BME280;28216;53.362;-6.288;2023-03-30T02:06:44;99327.75;;;11.00;100.00
42587;BME280;28216;53.362;-6.288;2023-03-30T02:09:16;99336.25;;;11.02;100.00
42587;BME280;28216;53.362;-6.288;2023-03-30T02:11:46;99339.88;;;11.01;100.00
42587;BME280;28216;53.362;-6.288;2023-03-30T02:14:15;99339.84;;;10.95;100.00
42587;BME280;28216;53.362;-6.288;2023-03-30T02:16:46;99342.25;;;10.90;100.00
42587;BME280;28216;53.362;-6.288;2023-03-30T02:19:12;99338.56;;;10.77;100.00
42587;BME280;28216;53.362;-6.288;2023-03-30T02:21:40;99341.19;;;10.77;100.00
42587;BME280;28216;53.362;-6.288;2023-03-30T02:24:11;99330.28;;;10.74;100.00
42587;BME280;28216;53.362;-6.288;2023-03-30T02:26:43;99336.31;;;10.68;100.00
42587;BME280;28216;53.362;-6.288;2023-03-30T02:29:09;99338.50;;;10.64;100.00
42587;BME280;28216;53.362;-6.288;2023-03-30T02:31:35;99348.16;;;10.57;100.00
42587;BME280;28216;53.362;-6.288;2023-03-30T02:39:06;99344.28;;;10.53;100.00
42587;BME280;28216;53.362;-6.288;2023-03-30T02:41:55;99343.88;;;10.49;100.00
42587;BME280;28216;53.362;-6.288;2023-03-30T02:44:31;99341.56;;;10.40;100.00
42587;BME280;28216;53.362;-6.288;2023-03-30T02:47:21;99339.16;;;10.38;100.00
42587;BME280;28216;53.362;-6.288;2023-03-30T02:55:29;99341.97;;;10.37;100.00
42587;BME280;28216;53.362;-6.288;2023-03-30T02:58:11;99340.75;;;10.39;100.00
42587;BME280;28216;53.362;-6.288;2023-03-30T03:00:51;99346.72;;;10.27;100.00
42587;BME280;28216;53.362;-6.288;2023-03-30T03:03:26;99345.50;;;10.23;100.00
42587;BME280;28216;53.362;-6.288;2023-03-30T03:05:55;99342.19;;;10.14;100.00
42587;BME280;28216;53.362;-6.288;2023-03-30T03:08:28;99341.19;;;10.15;100.00
42587;BME280;28216;53.362;-6.288;2023-03-30T03:10:54;99332.50;;;10.14;100.00
42587;BME280;28216;53.362;-6.288;2023-03-30T03:13:20;99334.09;;;10.09;100.00
42587;BME280;28216;53.362;-6.288;2023-03-30T03:15:46;99337.50;;;10.09;100.00
42587;BME280;28216;53.362;-6.288;2023-03-30T03:18:13;99329.41;;;10.04;100.00
42587;BME280;28216;53.362;-6.288;2023-03-30T03:20:39;99327.63;;;10.05;100.00
42587;BME280;28216;53.362;-6.288;2023-03-30T03:23:05;99328.63;;;10.04;100.00
42587;BME280;28216;53.362;-6.288;2023-03-30T03:25:30;99327.00;;;10.03;100.00
42587;BME280;28216;53.362;-6.288;2023-03-30T03:27:56;99327.38;;;10.00;100.00
42587;BME280;28216;53.362;-6.288;2023-03-30T03:30:22;99318.91;;;9.98;100.00
42587;BME280;28216;53.362;-6.288;2023-03-30T03:32:48;99327.31;;;9.93;100.00
42587;BME280;28216;53.362;-6.288;2023-03-30T03:35:14;99316.44;;;9.90;100.00
42587;BME280;28216;53.362;-6.288;2023-03-30T03:37:39;99317.66;;;9.94;100.00
42587;BME280;28216;53.362;-6.288;2023-03-30T03:40:06;99320.28;;;9.94;100.00
42587;BME280;28216;53.362;-6.288;2023-03-30T03:42:34;99313.44;;;9.93;100.00
42587;BME280;28216;53.362;-6.288;2023-03-30T03:45:00;99313.00;;;9.89;100.00
42587;BME280;28216;53.362;-6.288;2023-03-30T03:47:25;99320.19;;;9.80;100.00
42587;BME280;28216;53.362;-6.288;2023-03-30T03:49:51;99316.38;;;9.83;100.00
42587;BME280;28216;53.362;-6.288;2023-03-30T03:52:16;99314.94;;;9.80;100.00
42587;BME280;28216;53.362;-6.288;2023-03-30T03:54:41;99312.91;;;9.76;100.00
42587;BME280;28216;53.362;-6.288;2023-03-30T03:57:07;99314.09;;;9.73;100.00
42587;BME280;28216;53.362;-6.288;2023-03-30T03:59:32;99310.22;;;9.69;100.00
42587;BME280;28216;53.362;-6.288;2023-03-30T04:01:58;99315.09;;;9.72;100.00
42587;BME280;28216;53.362;-6.288;2023-03-30T04:04:23;99306.22;;;9.73;100.00
42587;BME280;28216;53.362;-6.288;2023-03-30T04:06:49;99305.81;;;9.70;100.00
42587;BME280;28216;53.362;-6.288;2023-03-30T04:09:14;99307.03;;;9.74;100.00
42587;BME280;28216;53.362;-6.288;2023-03-30T04:11:39;99302.25;;;9.77;100.00
42587;BME280;28216;53.362;-6.288;2023-03-30T04:14:05;99307.59;;;9.69;100.00
42587;BME280;28216;53.362;-6.288;2023-03-30T04:16:31;99309.03;;;9.72;100.00
42587;BME280;28216;53.362;-6.288;2023-03-30T04:18:56;99312.03;;;9.69;100.00
42587;BME280;28216;53.362;-6.288;2023-03-30T04:21:22;99307.22;;;9.72;100.00
42587;BME280;28216;53.362;-6.288;2023-03-30T04:23:48;99312.66;;;9.71;100.00
42587;BME280;28216;53.362;-6.288;2023-03-30T04:26:14;99316.88;;;9.72;100.00
42587;BME280;28216;53.362;-6.288;2023-03-30T04:28:40;99305.22;;;9.74;100.00
42587;BME280;28216;53.362;-6.288;2023-03-30T04:31:07;99302.81;;;9.73;100.00
42587;BME280;28216;53.362;-6.288;2023-03-30T04:33:38;99305.22;;;9.74;100.00
42587;BME280;28216;53.362;-6.288;2023-03-30T04:36:10;99305.03;;;9.76;100.00
42587;BME280;28216;53.362;-6.288;2023-03-30T04:38:44;99300.44;;;9.78;100.00
42587;BME280;28216;53.362;-6.288;2023-03-30T04:41:28;99311.47;;;9.73;100.00
42587;BME280;28216;53.362;-6.288;2023-03-30T04:44:01;99306.34;;;9.65;100.00
42587;BME280;28216;53.362;-6.288;2023-03-30T04:46:27;99309.41;;;9.69;100.00
42587;BME280;28216;53.362;-6.288;2023-03-30T04:48:52;99311.84;;;9.70;100.00
42587;BME280;28216;53.362;-6.288;2023-03-30T04:51:18;99308.66;;;9.75;100.00
42587;BME280;28216;53.362;-6.288;2023-03-30T04:53:43;99307.47;;;9.77;100.00
42587;BME280;28216;53.362;-6.288;2023-03-30T04:56:09;99310.09;;;9.77;100.00
42587;BME280;28216;53.362;-6.288;2023-03-30T04:58:35;99309.28;;;9.77;100.00
42587;BME280;28216;53.362;-6.288;2023-03-30T05:01:01;99305.00;;;9.69;100.00
42587;BME280;28216;53.362;-6.288;2023-03-30T05:03:28;99309.41;;;9.69;100.00
42587;BME280;28216;53.362;-6.288;2023-03-30T05:05:53;99310.31;;;9.61;100.00
42587;BME280;28216;53.362;-6.288;2023-03-30T05:08:19;99316.13;;;9.56;100.00
42587;BME280;28216;53.362;-6.288;2023-03-30T05:10:44;99312.88;;;9.54;100.00
42587;BME280;28216;53.362;-6.288;2023-03-30T05:13:10;99300.63;;;9.55;100.00
42587;BME280;28216;53.362;-6.288;2023-03-30T05:15:35;99313.44;;;9.50;100.00
42587;BME280;28216;53.362;-6.288;2023-03-30T05:18:01;99319.31;;;9.52;100.00
42587;BME280;28216;53.362;-6.288;2023-03-30T05:20:26;99309.47;;;9.54;100.00
42587;BME280;28216;53.362;-6.288;2023-03-30T05:22:52;99309.47;;;9.54;100.00
42587;BME280;28216;53.362;-6.288;2023-03-30T05:25:18;99316.06;;;9.50;100.00
42587;BME280;28216;53.362;-6.288;2023-03-30T05:27:44;99318.88;;;9.48;100.00
42587;BME280;28216;53.362;-6.288;2023-03-30T05:30:09;99317.19;;;9.41;100.00
42587;BME280;28216;53.362;-6.288;2023-03-30T05:32:35;99326.84;;;9.40;100.00
42587;BME280;28216;53.362;-6.288;2023-03-30T05:35:01;99328.22;;;9.36;100.00
42587;BME280;28216;53.362;-6.288;2023-03-30T05:37:26;99335.06;;;9.37;100.00
42587;BME280;28216;53.362;-6.288;2023-03-30T05:39:51;99330.81;;;9.36;100.00
42587;BME280;28216;53.362;-6.288;2023-03-30T05:42:17;99335.06;;;9.37;100.00
42587;BME280;28216;53.362;-6.288;2023-03-30T05:44:43;99325.59;;;9.36;100.00
42587;BME280;28216;53.362;-6.288;2023-03-30T05:47:08;99331.81;;;9.35;100.00
42587;BME280;28216;53.362;-6.288;2023-03-30T05:49:34;99330.19;;;9.34;100.00
42587;BME280;28216;53.362;-6.288;2023-03-30T05:51:59;99325.22;;;9.39;100.00
42587;BME280;28216;53.362;-6.288;2023-03-30T05:54:25;99334.31;;;9.43;100.00
42587;BME280;28216;53.362;-6.288;2023-03-30T05:56:51;99332.50;;;9.44;100.00
42587;BME280;28216;53.362;-6.288;2023-03-30T05:59:17;99347.03;;;9.46;100.00
42587;BME280;28216;53.362;-6.288;2023-03-30T06:01:43;99340.78;;;9.47;100.00
42587;BME280;28216;53.362;-6.288;2023-03-30T06:04:10;99345.66;;;9.50;100.00
42587;BME280;28216;53.362;-6.288;2023-03-30T06:06:35;99337.25;;;9.55;100.00
42587;BME280;28216;53.362;-6.288;2023-03-30T06:09:01;99335.69;;;9.61;100.00
42587;BME280;28216;53.362;-6.288;2023-03-30T06:11:28;99330.53;;;9.67;100.00
42587;BME280;28216;53.362;-6.288;2023-03-30T06:13:54;99332.69;;;9.64;100.00
42587;BME280;28216;53.362;-6.288;2023-03-30T06:16:19;99342.69;;;9.75;100.00
42587;BME280;28216;53.362;-6.288;2023-03-30T06:18:45;99335.88;;;9.80;100.00
42587;BME280;28216;53.362;-6.288;2023-03-30T06:21:11;99330.91;;;9.85;100.00
42587;BME280;28216;53.362;-6.288;2023-03-30T06:23:36;99343.97;;;9.85;100.00
42587;BME280;28216;53.362;-6.288;2023-03-30T06:26:03;99335.94;;;9.87;100.00
42587;BME280;28216;53.362;-6.288;2023-03-30T06:28:29;99331.31;;;9.89;100.00
42587;BME280;28216;53.362;-6.288;2023-03-30T06:30:55;99338.19;;;9.90;100.00
42587;BME280;28216;53.362;-6.288;2023-03-30T06:33:21;99345.09;;;9.98;100.00
42587;BME280;28216;53.362;-6.288;2023-03-30T06:35:50;99343.31;;;10.05;100.00
42587;BME280;28216;53.362;-6.288;2023-03-30T06:38:17;99356.31;;;10.19;100.00
42587;BME280;28216;53.362;-6.288;2023-03-30T06:40:43;99357.06;;;10.35;100.00
42587;BME280;28216;53.362;-6.288;2023-03-30T06:43:21;99357.00;;;10.56;100.00
42587;BME280;28216;53.362;-6.288;2023-03-30T06:45:55;99360.28;;;10.65;100.00
42587;BME280;28216;53.362;-6.288;2023-03-30T06:48:22;99351.47;;;10.79;100.00
42587;BME280;28216;53.362;-6.288;2023-03-30T06:50:51;99355.56;;;10.88;100.00
42587;BME280;28216;53.362;-6.288;2023-03-30T06:53:18;99356.59;;;10.94;100.00
42587;BME280;28216;53.362;-6.288;2023-03-30T06:55:50;99354.78;;;10.94;100.00
42587;BME280;28216;53.362;-6.288;2023-03-30T06:58:17;99366.13;;;11.08;100.00
42587;BME280;28216;53.362;-6.288;2023-03-30T07:00:42;99365.53;;;11.12;100.00
42587;BME280;28216;53.362;-6.288;2023-03-30T07:03:07;99360.25;;;11.06;100.00
42587;BME280;28216;53.362;-6.288;2023-03-30T07:05:34;99375.88;;;11.21;100.00
42587;BME280;28216;53.362;-6.288;2023-03-30T07:07:59;99371.06;;;11.31;100.00
42587;BME280;28216;53.362;-6.288;2023-03-30T07:10:25;99370.88;;;11.39;100.00
42587;BME280;28216;53.362;-6.288;2023-03-30T07:12:50;99377.56;;;11.41;100.00
42587;BME280;28216;53.362;-6.288;2023-03-30T07:15:16;99381.63;;;11.51;100.00
42587;BME280;28216;53.362;-6.288;2023-03-30T07:17:41;99377.44;;;11.83;100.00
42587;BME280;28216;53.362;-6.288;2023-03-30T07:20:08;99377.69;;;12.21;100.00
42587;BME280;28216;53.362;-6.288;2023-03-30T07:22:35;99397.25;;;12.58;100.00
42587;BME280;28216;53.362;-6.288;2023-03-30T07:25:01;99387.06;;;12.94;100.00
42587;BME280;28216;53.362;-6.288;2023-03-30T07:27:26;99387.56;;;13.16;100.00
42587;BME280;28216;53.362;-6.288;2023-03-30T07:29:52;99392.88;;;13.03;100.00
42587;BME280;28216;53.362;-6.288;2023-03-30T07:32:18;99391.66;;;13.05;100.00
42587;BME280;28216;53.362;-6.288;2023-03-30T07:34:44;99394.97;;;12.88;100.00
42587;BME280;28216;53.362;-6.288;2023-03-30T07:37:11;99396.63;;;12.76;100.00
42587;BME280;28216;53.362;-6.288;2023-03-30T07:39:37;99402.31;;;12.53;100.00
42587;BME280;28216;53.362;-6.288;2023-03-30T07:42:03;99402.53;;;12.38;100.00
42587;BME280;28216;53.362;-6.288;2023-03-30T07:44:28;99406.19;;;12.11;100.00
42587;BME280;28216;53.362;-6.288;2023-03-30T07:46:56;99395.06;;;12.08;100.00
42587;BME280;28216;53.362;-6.288;2023-03-30T07:49:22;99402.94;;;11.95;100.00
42587;BME280;28216;53.362;-6.288;2023-03-30T07:51:48;99412.84;;;11.93;100.00
42587;BME280;28216;53.362;-6.288;2023-03-30T07:54:13;99416.28;;;11.94;100.00
42587;BME280;28216;53.362;-6.288;2023-03-30T07:56:39;99418.66;;;11.89;100.00
42587;BME280;28216;53.362;-6.288;2023-03-30T07:59:07;99418.69;;;11.95;100.00
42587;BME280;28216;53.362;-6.288;2023-03-30T08:01:34;99426.75;;;11.87;100.00
42587;BME280;28216;53.362;-6.288;2023-03-30T08:04:00;99427.78;;;11.93;100.00
42587;BME280;28216;53.362;-6.288;2023-03-30T08:06:26;99428.22;;;12.03;100.00
42587;BME280;28216;53.362;-6.288;2023-03-30T08:08:52;99427.19;;;12.04;100.00
42587;BME280;28216;53.362;-6.288;2023-03-30T08:11:18;99436.88;;;11.97;100.00
42587;BME280;28216;53.362;-6.288;2023-03-30T08:13:44;99442.16;;;12.10;100.00
42587;BME280;28216;53.362;-6.288;2023-03-30T08:16:10;99438.31;;;12.13;100.00
42587;BME280;28216;53.362;-6.288;2023-03-30T08:18:36;99440.94;;;12.13;100.00
42587;BME280;28216;53.362;-6.288;2023-03-30T08:21:02;99435.69;;;12.19;100.00
42587;BME280;28216;53.362;-6.288;2023-03-30T08:23:27;99434.88;;;12.25;100.00
42587;BME280;28216;53.362;-6.288;2023-03-30T08:25:57;99434.69;;;12.20;100.00
42587;BME280;28216;53.362;-6.288;2023-03-30T08:28:22;99434.06;;;12.45;100.00
42587;BME280;28216;53.362;-6.288;2023-03-30T08:30:48;99429.19;;;12.81;100.00
42587;BME280;28216;53.362;-6.288;2023-03-30T08:33:14;99429.28;;;13.13;100.00
42587;BME280;28216;53.362;-6.288;2023-03-30T08:35:42;99436.16;;;13.27;100.00
42587;BME280;28216;53.362;-6.288;2023-03-30T08:38:08;99442.38;;;13.46;100.00
42587;BME280;28216;53.362;-6.288;2023-03-30T08:40:38;99437.41;;;13.62;100.00
42587;BME280;28216;53.362;-6.288;2023-03-30T08:45:47;99429.72;;;13.61;100.00
42587;BME280;28216;53.362;-6.288;2023-03-30T08:48:24;99426.66;;;13.95;100.00
42587;BME280;28216;53.362;-6.288;2023-03-30T08:53:31;99439.31;;;14.18;100.00
42587;BME280;28216;53.362;-6.288;2023-03-30T08:56:00;99438.41;;;13.99;100.00
42587;BME280;28216;53.362;-6.288;2023-03-30T09:03:38;99456.59;;;13.76;100.00
42587;BME280;28216;53.362;-6.288;2023-03-30T09:08:35;99461.59;;;13.46;100.00
42587;BME280;28216;53.362;-6.288;2023-03-30T09:11:04;99448.16;;;13.61;100.00
42587;BME280;28216;53.362;-6.288;2023-03-30T09:13:33;99448.72;;;13.70;100.00
42587;BME280;28216;53.362;-6.288;2023-03-30T09:16:10;99455.31;;;13.85;100.00
42587;BME280;28216;53.362;-6.288;2023-03-30T09:18:41;99455.19;;;14.05;100.00
42587;BME280;28216;53.362;-6.288;2023-03-30T09:21:12;99435.72;;;14.06;100.00
42587;BME280;28216;53.362;-6.288;2023-03-30T09:23:38;99440.91;;;14.19;100.00
42587;BME280;28216;53.362;-6.288;2023-03-30T09:26:25;99444.84;;;14.35;100.00
42587;BME280;28216;53.362;-6.288;2023-03-30T09:29:06;99456.59;;;14.64;100.00
42587;BME280;28216;53.362;-6.288;2023-03-30T09:31:40;99459.47;;;14.81;100.00
42587;BME280;28216;53.362;-6.288;2023-03-30T09:34:21;99456.16;;;14.67;100.00
42587;BME280;28216;53.362;-6.288;2023-03-30T09:37:12;99458.84;;;15.04;100.00
42587;BME280;28216;53.362;-6.288;2023-03-30T09:39:38;99465.59;;;15.36;100.00
42587;BME280;28216;53.362;-6.288;2023-03-30T09:44:54;99474.41;;;15.12;100.00
42587;BME280;28216;53.362;-6.288;2023-03-30T09:49:45;99472.19;;;15.09;100.00
42587;BME280;28216;53.362;-6.288;2023-03-30T09:52:20;99471.53;;;15.13;100.00
42587;BME280;28216;53.362;-6.288;2023-03-30T09:54:46;99464.19;;;14.97;100.00
42587;BME280;28216;53.362;-6.288;2023-03-30T09:57:30;99481.44;;;15.36;100.00
42587;BME280;28216;53.362;-6.288;2023-03-30T09:59:58;99490.00;;;15.50;100.00
42587;BME280;28216;53.362;-6.288;2023-03-30T10:02:26;99484.44;;;15.21;100.00
42587;BME280;28216;53.362;-6.288;2023-03-30T10:10:10;99479.09;;;15.65;100.00
42587;BME280;28216;53.362;-6.288;2023-03-30T10:12:37;99476.81;;;15.68;100.00
42587;BME280;28216;53.362;-6.288;2023-03-30T10:15:03;99475.28;;;15.91;100.00
42587;BME280;28216;53.362;-6.288;2023-03-30T10:17:29;99487.88;;;15.77;100.00
42587;BME280;28216;53.362;-6.288;2023-03-30T10:22:59;99500.38;;;15.70;100.00
42587;BME280;28216;53.362;-6.288;2023-03-30T10:25:26;99492.75;;;15.62;100.00
42587;BME280;28216;53.362;-6.288;2023-03-30T10:28:00;99486.06;;;15.59;100.00
42587;BME280;28216;53.362;-6.288;2023-03-30T10:30:27;99487.22;;;15.45;100.00
42587;BME280;28216;53.362;-6.288;2023-03-30T10:32:56;99489.50;;;15.41;100.00
42587;BME280;28216;53.362;-6.288;2023-03-30T10:35:25;99489.78;;;15.33;100.00
42587;BME280;28216;53.362;-6.288;2023-03-30T10:37:53;99485.19;;;15.29;100.00
42587;BME280;28216;53.362;-6.288;2023-03-30T10:40:25;99489.06;;;15.08;100.00
42587;BME280;28216;53.362;-6.288;2023-03-30T10:42:56;99503.28;;;14.88;100.00
42587;BME280;28216;53.362;-6.288;2023-03-30T10:45:49;99507.84;;;14.75;100.00
42587;BME280;28216;53.362;-6.288;2023-03-30T10:49:16;99504.00;;;14.71;100.00
42587;BME280;28216;53.362;-6.288;2023-03-30T10:54:17;99499.69;;;14.76;100.00
42587;BME280;28216;53.362;-6.288;2023-03-30T10:57:23;99491.75;;;14.58;100.00
42587;BME280;28216;53.362;-6.288;2023-03-30T11:00:04;99485.53;;;14.71;100.00
42587;BME280;28216;53.362;-6.288;2023-03-30T11:08:02;99486.72;;;15.18;100.00
42587;BME280;28216;53.362;-6.288;2023-03-30T11:10:48;99494.97;;;15.65;100.00
42587;BME280;28216;53.362;-6.288;2023-03-30T11:13:40;99490.16;;;16.03;100.00
42587;BME280;28216;53.362;-6.288;2023-03-30T11:16:13;99484.41;;;16.36;100.00
42587;BME280;28216;53.362;-6.288;2023-03-30T11:21:19;99490.50;;;16.37;100.00
42587;BME280;28216;53.362;-6.288;2023-03-30T11:23:57;99482.97;;;16.22;100.00
42587;BME280;28216;53.362;-6.288;2023-03-30T11:26:36;99486.50;;;16.16;100.00
42587;BME280;28216;53.362;-6.288;2023-03-30T11:34:44;99476.06;;;16.21;100.00
42587;BME280;28216;53.362;-6.288;2023-03-30T11:37:32;99476.81;;;16.40;100.00
42587;BME280;28216;53.362;-6.288;2023-03-30T11:42:37;99475.00;;;16.64;100.00
42587;BME280;28216;53.362;-6.288;2023-03-30T11:45:16;99471.91;;;16.78;100.00
42587;BME280;28216;53.362;-6.288;2023-03-30T11:53:22;99457.28;;;16.99;100.00
42587;BME280;28216;53.362;-6.288;2023-03-30T11:56:06;99463.13;;;17.01;100.00
42587;BME280;28216;53.362;-6.288;2023-03-30T11:58:37;99459.00;;;17.05;100.00
42587;BME280;28216;53.362;-6.288;2023-03-30T12:04:28;99455.00;;;16.79;100.00
42587;BME280;28216;53.362;-6.288;2023-03-30T12:06:57;99446.69;;;16.52;100.00
42587;BME280;28216;53.362;-6.288;2023-03-30T12:09:33;99451.41;;;16.62;100.00
42587;BME280;28216;53.362;-6.288;2023-03-30T12:14:39;99446.44;;;17.12;100.00
42587;BME280;28216;53.362;-6.288;2023-03-30T12:20:11;99451.47;;;17.26;100.00
42587;BME280;28216;53.362;-6.288;2023-03-30T12:28:16;99436.25;;;17.73;100.00
42587;BME280;28216;53.362;-6.288;2023-03-30T12:30:43;99435.63;;;17.83;100.00
42587;BME280;28216;53.362;-6.288;2023-03-30T12:36:00;99430.88;;;17.56;100.00
42587;BME280;28216;53.362;-6.288;2023-03-30T12:38:48;99433.66;;;17.21;100.00
42587;BME280;28216;53.362;-6.288;2023-03-30T12:41:15;99433.06;;;17.07;100.00
42587;BME280;28216;53.362;-6.288;2023-03-30T12:46:29;99436.31;;;16.63;100.00
42587;BME280;28216;53.362;-6.288;2023-03-30T12:52:13;99427.91;;;16.31;100.00
42587;BME280;28216;53.362;-6.288;2023-03-30T12:54:59;99420.91;;;16.36;100.00
42587;BME280;28216;53.362;-6.288;2023-03-30T13:05:59;99404.94;;;16.66;100.00
42587;BME280;28216;53.362;-6.288;2023-03-30T13:08:38;99410.69;;;16.75;100.00
42587;BME280;28216;53.362;-6.288;2023-03-30T13:11:24;99401.47;;;16.77;100.00
42587;BME280;28216;53.362;-6.288;2023-03-30T13:13:57;99411.16;;;16.72;100.00
42587;BME280;28216;53.362;-6.288;2023-03-30T13:38:23;99404.03;;;14.87;100.00
42587;BME280;28216;53.362;-6.288;2023-03-30T13:41:25;99403.41;;;14.85;100.00
42587;BME280;28216;53.362;-6.288;2023-03-30T13:52:12;99390.06;;;15.17;100.00
42587;BME280;28216;53.362;-6.288;2023-03-30T13:54:41;99375.31;;;15.27;100.00
42587;BME280;28216;53.362;-6.288;2023-03-30T13:57:18;99372.69;;;15.39;100.00
42587;BME280;28216;53.362;-6.288;2023-03-30T13:59:58;99351.75;;;15.56;100.00
42587;BME280;28216;53.362;-6.288;2023-03-30T14:02:46;99351.38;;;15.71;100.00
42587;BME280;28216;53.362;-6.288;2023-03-30T14:05:25;99354.38;;;15.86;100.00
42587;BME280;28216;53.362;-6.288;2023-03-30T14:07:56;99343.03;;;16.09;100.00
42587;BME280;28216;53.362;-6.288;2023-03-30T14:10:28;99344.28;;;16.18;100.00
42587;BME280;28216;53.362;-6.288;2023-03-30T14:12:55;99335.22;;;16.26;100.00
42587;BME280;28216;53.362;-6.288;2023-03-30T14:16:05;99334.28;;;16.32;100.00
42587;BME280;28216;53.362;-6.288;2023-03-30T14:18:40;99323.16;;;16.41;100.00
42587;BME280;28216;53.362;-6.288;2023-03-30T14:21:14;99325.22;;;16.39;100.00
42587;BME280;28216;53.362;-6.288;2023-03-30T14:23:44;99320.38;;;16.48;100.00
42587;BME280;28216;53.362;-6.288;2023-03-30T14:26:18;99311.06;;;16.45;100.00
42587;BME280;28216;53.362;-6.288;2023-03-30T14:28:45;99312.09;;;16.44;100.00
42587;BME280;28216;53.362;-6.288;2023-03-30T14:31:17;99291.84;;;16.50;100.00
42587;BME280;28216;53.362;-6.288;2023-03-30T14:33:43;99296.56;;;16.48;100.00
42587;BME280;28216;53.362;-6.288;2023-03-30T14:36:11;99292.31;;;16.47;100.00
42587;BME280;28216;53.362;-6.288;2023-03-30T14:38:44;99298.38;;;16.59;100.00
42587;BME280;28216;53.362;-6.288;2023-03-30T14:41:26;99292.06;;;16.72;100.00
42587;BME280;28216;53.362;-6.288;2023-03-30T14:44:02;99288.47;;;16.78;100.00
42587;BME280;28216;53.362;-6.288;2023-03-30T14:46:42;99283.97;;;16.78;100.00
42587;BME280;28216;53.362;-6.288;2023-03-30T14:49:23;99275.47;;;16.76;100.00
42587;BME280;28216;53.362;-6.288;2023-03-30T14:51:59;99267.91;;;16.68;100.00
42587;BME280;28216;53.362;-6.288;2023-03-30T14:54:25;99264.88;;;16.65;100.00
42587;BME280;28216;53.362;-6.288;2023-03-30T14:56:57;99266.16;;;16.62;100.00
42587;BME280;28216;53.362;-6.288;2023-03-30T14:59:25;99258.59;;;16.54;100.00
42587;BME280;28216;53.362;-6.288;2023-03-30T15:01:52;99256.97;;;16.53;100.00
42587;BME280;28216;53.362;-6.288;2023-03-30T15:04:23;99261.28;;;16.42;100.00
42587;BME280;28216;53.362;-6.288;2023-03-30T15:06:51;99259.06;;;16.51;100.00
42587;BME280;28216;53.362;-6.288;2023-03-30T15:09:21;99252.28;;;16.43;100.00
42587;BME280;28216;53.362;-6.288;2023-03-30T15:11:59;99239.78;;;16.39;100.00
42587;BME280;28216;53.362;-6.288;2023-03-30T15:14:33;99233.22;;;16.30;100.00
42587;BME280;28216;53.362;-6.288;2023-03-30T15:17:06;99231.84;;;16.27;100.00
42587;BME280;28216;53.362;-6.288;2023-03-30T15:19:36;99238.53;;;16.18;100.00
42587;BME280;28216;53.362;-6.288;2023-03-30T15:22:11;99235.19;;;16.23;100.00
42587;BME280;28216;53.362;-6.288;2023-03-30T15:24:41;99233.09;;;16.25;100.00
42587;BME280;28216;53.362;-6.288;2023-03-30T15:27:07;99236.56;;;16.25;100.00
42587;BME280;28216;53.362;-6.288;2023-03-30T15:29:38;99234.03;;;16.18;100.00
42587;BME280;28216;53.362;-6.288;2023-03-30T15:34:57;99229.13;;;15.99;100.00